Time;durP1;ratioP1;P1;durP2;ratioP2;P2;SDS_P1;SDS_P2;PMS_P1;PMS_P2;Temp;Humidity;BMP_temperature;BMP_pressure;BME280_temperature;BME280_humidity;BME280_pressure;Samples;Min_cycle;Max_cycle;Signal;HPM_P1;HPM_P2
2022/04/08 00:03:39;;;;;;;7.17;1.73;;;25.10;75.80;;;;;;5030434;28;20239;-93
2022/04/08 00:06:14;;;;;;;3.33;1.40;;;24.70;81.40;;;;;;5026199;28;20252;-94
2022/04/08 00:08:56;;;;;;;7.80;1.60;;;24.50;79.10;;;;;;5023982;28;20213;-94
2022/04/08 00:11:28;;;;;;;5.83;1.63;;;24.40;79.10;;;;;;5022740;28;20225;-94
2022/04/08 00:14:01;;;;;;;5.20;2.00;;;24.40;80.00;;;;;;5023067;28;20205;-94
2022/04/08 00:16:32;;;;;;;6.17;2.00;;;24.40;78.80;;;;;;5034466;28;20213;-94
2022/04/08 00:19:03;;;;;;;5.23;1.70;;;24.40;81.60;;;;;;5019028;28;20214;-93
2022/04/08 00:21:41;;;;;;;5.53;1.50;;;24.30;83.10;;;;;;5035339;28;20206;-93
2022/04/08 00:24:13;;;;;;;7.20;1.80;;;24.40;82.10;;;;;;5024733;28;20205;-94
2022/04/08 00:26:48;;;;;;;4.10;1.40;;;24.40;80.70;;;;;;5021567;28;20257;-94
2022/04/08 00:38:37;;;;;;;6.27;1.70;;;24.50;78.60;;;;;;5732535;22;20266;-93
2022/04/08 00:41:10;;;;;;;4.07;1.60;;;24.40;78.90;;;;;;5058390;28;20216;-94
2022/04/08 00:43:44;;;;;;;3.93;1.87;;;24.30;77.40;;;;;;5056339;28;20232;-92
2022/04/08 00:46:18;;;;;;;5.80;1.57;;;24.10;79.20;;;;;;5041430;28;20228;-93
2022/04/08 00:51:47;;;;;;;5.77;1.77;;;23.70;81.40;;;;;;5039515;28;20443;-94
2022/04/08 00:54:32;;;;;;;3.57;1.70;;;23.40;80.80;;;;;;5054074;28;20221;-93
2022/04/08 00:57:05;;;;;;;7.40;1.60;;;23.20;82.60;;;;;;5048194;28;20208;-94
2022/04/08 00:59:37;;;;;;;3.53;1.63;;;23.20;82.40;;;;;;5050733;28;20213;-92
2022/04/08 01:02:10;;;;;;;7.03;1.70;;;23.10;83.90;;;;;;5056655;28;20216;-93
2022/04/08 01:04:45;;;;;;;6.03;2.27;;;22.90;82.60;;;;;;5050349;28;20234;-94
2022/04/08 01:07:21;;;;;;;6.53;1.67;;;22.80;80.80;;;;;;5060450;28;20291;-93
2022/04/08 01:09:57;;;;;;;4.93;1.80;;;22.80;78.80;;;;;;5061665;28;20623;-93
2022/04/08 01:12:31;;;;;;;6.27;1.67;;;22.80;78.50;;;;;;5061481;28;20204;-95
2022/04/08 01:15:08;;;;;;;3.40;1.50;;;22.80;78.90;;;;;;5061058;28;20257;-93
2022/04/08 01:17:41;;;;;;;5.13;1.40;;;22.80;78.80;;;;;;5060181;28;20235;-94
2022/04/08 01:20:14;;;;;;;5.63;1.70;;;22.90;80.40;;;;;;5068999;28;20208;-95
2022/04/08 01:22:50;;;;;;;4.23;1.70;;;22.90;79.30;;;;;;5075143;28;20214;-93
2022/04/08 01:25:28;;;;;;;3.80;1.70;;;22.80;78.20;;;;;;5066041;28;20236;-93
2022/04/08 01:28:08;;;;;;;3.33;1.77;;;22.70;78.80;;;;;;5063116;28;20219;-93
2022/04/08 01:30:47;;;;;;;7.03;1.83;;;22.60;80.20;;;;;;5059487;28;20590;-93
2022/04/08 01:33:23;;;;;;;5.53;1.90;;;22.40;83.40;;;;;;5061108;28;20274;-92
2022/04/08 01:35:58;;;;;;;8.67;1.77;;;22.00;85.80;;;;;;5064542;28;20647;-93
2022/04/08 01:38:39;;;;;;;6.23;1.60;;;21.70;86.90;;;;;;5071783;28;20200;-91
2022/04/08 01:44:53;;;;;;;8.53;1.77;;;21.20;89.50;;;;;;5075578;28;20197;-93
2022/04/08 01:47:25;;;;;;;3.77;1.77;;;21.00;90.10;;;;;;5067663;28;20254;-94
2022/04/08 01:50:05;;;;;;;7.10;2.00;;;20.90;90.30;;;;;;5053133;28;20212;-92
2022/04/08 01:52:39;;;;;;;7.90;3.03;;;20.70;90.50;;;;;;5039699;28;20231;-93
2022/04/08 01:55:11;;;;;;;6.60;2.40;;;20.50;90.40;;;;;;5041536;28;20217;-94
2022/04/08 02:06:29;;;;;;;7.20;1.77;;;20.20;90.10;;;;;;5057612;28;20238;-92
2022/04/08 02:09:00;;;;;;;6.20;2.27;;;20.10;92.60;;;;;;5064177;28;20203;-92
2022/04/08 02:11:32;;;;;;;3.80;1.90;;;19.90;93.80;;;;;;5058728;28;20270;-92
2022/04/08 02:16:56;;;;;;;5.33;2.00;;;19.80;93.90;;;;;;5068105;28;20631;-92
2022/04/08 02:19:29;;;;;;;7.20;1.80;;;19.60;92.70;;;;;;5070715;28;20548;-93
2022/04/08 02:24:52;;;;;;;9.07;2.00;;;19.40;93.50;;;;;;5413651;22;20283;-93
2022/04/08 02:27:26;;;;;;;5.17;2.13;;;19.30;93.40;;;;;;5036538;28;20217;-93
2022/04/08 02:32:32;;;;;;;5.43;2.20;;;19.20;91.90;;;;;;5036508;28;20202;-94
2022/04/08 02:35:04;;;;;;;8.67;1.97;;;19.30;91.00;;;;;;5037398;28;20198;-93
2022/04/08 02:37:37;;;;;;;4.87;2.03;;;19.20;91.10;;;;;;5032568;28;20206;-92
2022/04/08 02:40:17;;;;;;;4.20;1.80;;;19.30;92.00;;;;;;5037310;28;20193;-92
2022/04/08 02:42:49;;;;;;;8.37;2.10;;;19.20;94.00;;;;;;5037245;28;20189;-94
2022/04/08 02:45:21;;;;;;;8.33;2.73;;;19.00;94.50;;;;;;5020801;28;20209;-93
2022/04/08 02:47:54;;;;;;;7.57;2.60;;;19.00;94.20;;;;;;5019443;28;20205;-92
2022/04/08 02:50:29;;;;;;;9.03;2.30;;;18.90;93.60;;;;;;5036272;28;20228;-93
2022/04/08 02:53:05;;;;;;;8.63;2.53;;;18.90;92.50;;;;;;5020242;28;20249;-91
2022/04/08 02:55:40;;;;;;;5.90;2.17;;;18.80;94.20;;;;;;5035044;28;20228;-93
2022/04/08 02:58:13;;;;;;;4.53;2.10;;;18.70;94.20;;;;;;5034449;28;20190;-93
2022/04/08 03:03:24;;;;;;;9.03;2.23;;;18.60;93.70;;;;;;5035380;22;20251;-92
2022/04/08 03:05:55;;;;;;;6.13;2.30;;;18.60;93.50;;;;;;5037045;28;20252;-93
2022/04/08 03:11:22;;;;;;;8.13;2.30;;;18.50;94.40;;;;;;5035643;28;20201;-92
2022/04/08 03:13:59;;;;;;;5.60;2.23;;;18.50;94.40;;;;;;5034072;28;20208;-91
2022/04/08 03:16:34;;;;;;;4.47;2.30;;;18.50;95.40;;;;;;5037118;28;20220;-93
2022/04/08 03:19:09;;;;;;;8.50;2.30;;;18.40;96.20;;;;;;5035769;28;20231;-93
2022/04/08 03:21:44;;;;;;;9.40;2.33;;;18.30;96.20;;;;;;5037532;28;20200;-94
2022/04/08 03:24:22;;;;;;;7.83;2.30;;;18.30;96.30;;;;;;5034605;28;20539;-93
2022/04/08 03:26:54;;;;;;;4.13;1.83;;;18.20;96.40;;;;;;5019162;28;20213;-93
2022/04/08 03:29:28;;;;;;;3.87;1.97;;;18.20;96.90;;;;;;5035442;28;20236;-94
2022/04/08 03:32:11;;;;;;;6.37;2.10;;;18.10;96.70;;;;;;5035724;28;20213;-93
2022/04/08 03:34:46;;;;;;;6.17;2.03;;;18.00;97.30;;;;;;5017984;28;20233;-93
2022/04/08 03:40:21;;;;;;;8.40;2.43;;;18.00;98.20;;;;;;5031008;28;20217;-94
2022/04/08 03:42:58;;;;;;;6.87;2.03;;;17.90;96.50;;;;;;5018519;28;20197;-92
2022/04/08 03:45:42;;;;;;;6.17;1.97;;;17.90;96.80;;;;;;5028944;28;20198;-94
2022/04/08 03:48:14;;;;;;;5.70;2.20;;;17.90;97.60;;;;;;5034800;28;20201;-91
2022/04/08 04:01:58;;;;;;;6.30;2.10;;;17.90;96.80;;;;;;5470941;22;20249;-92
2022/04/08 04:04:36;;;;;;;4.00;2.17;;;17.80;98.00;;;;;;5027588;28;20224;-94
2022/04/08 04:09:52;;;;;;;5.60;1.90;;;18.00;96.50;;;;;;5051996;28;20220;-92
2022/04/08 04:12:28;;;;;;;3.50;1.93;;;18.00;95.10;;;;;;5052242;28;20219;-94
2022/04/08 04:23:20;;;;;;;6.90;2.07;;;18.10;95.30;;;;;;5076201;28;20549;-93
2022/04/08 04:25:54;;;;;;;6.03;2.47;;;18.10;95.20;;;;;;5076489;28;20204;-92
2022/04/08 04:28:31;;;;;;;5.53;2.00;;;18.00;96.90;;;;;;5074767;28;20208;-92
2022/04/08 04:31:04;;;;;;;5.67;2.70;;;17.80;97.80;;;;;;5073662;28;20200;-92
2022/04/08 04:33:38;;;;;;;4.30;2.30;;;17.70;99.40;;;;;;5071878;28;20219;-93
2022/04/08 04:36:11;;;;;;;7.47;2.60;;;17.60;99.90;;;;;;5070059;28;20224;-93
2022/04/08 04:38:43;;;;;;;8.97;2.67;;;17.50;99.90;;;;;;5073311;28;20661;-93
2022/04/08 04:41:15;;;;;;;6.67;2.50;;;17.40;99.90;;;;;;5063470;28;20215;-92
2022/04/08 04:43:50;;;;;;;8.33;2.43;;;17.20;99.90;;;;;;5070226;28;20209;-93
2022/04/08 04:46:28;;;;;;;8.37;2.00;;;17.30;99.90;;;;;;5078841;28;20230;-92
2022/04/08 04:49:00;;;;;;;4.63;2.33;;;17.20;99.90;;;;;;5078536;28;20260;-93
2022/04/08 04:51:32;;;;;;;5.73;2.37;;;17.10;99.90;;;;;;5076712;28;20231;-93
2022/04/08 04:54:04;;;;;;;6.30;2.40;;;17.10;99.90;;;;;;5071980;28;20305;-94
2022/04/08 04:56:36;;;;;;;5.30;2.00;;;16.90;99.90;;;;;;5071510;28;20208;-92
2022/04/08 04:59:10;;;;;;;6.90;2.40;;;16.80;99.90;;;;;;5069977;28;20232;-92
2022/04/08 05:06:54;;;;;;;6.20;2.50;;;16.80;99.90;;;;;;5027859;28;20229;-95
2022/04/08 05:09:25;;;;;;;4.30;2.20;;;16.80;99.90;;;;;;5017792;28;20229;-93
2022/04/08 05:11:57;;;;;;;8.00;2.30;;;16.70;99.90;;;;;;5030718;28;20225;-93
2022/04/08 05:14:35;;;;;;;8.63;2.20;;;16.60;99.90;;;;;;5023715;28;20244;-93
2022/04/08 05:17:07;;;;;;;6.23;2.23;;;16.50;99.90;;;;;;5024670;28;20213;-95
2022/04/08 05:19:38;;;;;;;6.37;2.03;;;16.50;99.90;;;;;;5021221;28;20216;-94
2022/04/08 05:22:17;;;;;;;6.10;2.07;;;16.50;99.90;;;;;;5021121;28;20285;-93
2022/04/08 05:24:48;;;;;;;5.53;2.27;;;16.50;99.90;;;;;;5020550;28;20209;-93
2022/04/08 05:27:21;;;;;;;3.57;2.00;;;16.60;99.90;;;;;;5019316;28;20237;-92
2022/04/08 05:29:54;;;;;;;3.60;2.27;;;16.50;99.90;;;;;;5020003;28;20245;-93
2022/04/08 05:32:25;;;;;;;2.47;1.80;;;16.50;99.90;;;;;;5020651;28;20232;-92
2022/04/08 05:34:57;;;;;;;7.17;2.30;;;16.40;99.90;;;;;;5021732;28;20347;-93
2022/04/08 05:37:29;;;;;;;6.67;2.10;;;16.40;99.90;;;;;;5023674;28;20308;-93
2022/04/08 05:40:00;;;;;;;7.93;2.60;;;16.40;99.90;;;;;;5004461;28;20225;-91
2022/04/08 05:42:31;;;;;;;8.00;2.40;;;16.40;99.90;;;;;;5021486;28;20260;-92
2022/04/08 05:45:12;;;;;;;4.80;2.43;;;16.30;99.90;;;;;;5021344;28;20201;-93
2022/04/08 05:47:43;;;;;;;5.53;2.30;;;16.20;99.90;;;;;;5019245;28;20267;-93
2022/04/08 05:50:17;;;;;;;4.37;2.43;;;16.10;99.90;;;;;;5022356;28;20209;-93
2022/04/08 05:52:51;;;;;;;6.37;2.37;;;16.10;99.90;;;;;;5025466;28;20248;-93
2022/04/08 05:55:23;;;;;;;4.03;2.40;;;16.00;99.90;;;;;;5002030;28;20276;-93
2022/04/08 05:57:56;;;;;;;7.33;2.40;;;16.00;99.90;;;;;;5018683;28;20261;-93
2022/04/08 06:00:33;;;;;;;5.47;2.30;;;16.00;99.90;;;;;;5019181;28;20663;-93
2022/04/08 06:03:05;;;;;;;5.60;1.73;;;16.00;99.90;;;;;;5020255;28;20301;-93
2022/04/08 06:05:37;;;;;;;5.50;2.50;;;16.10;99.90;;;;;;5018758;28;20577;-94
2022/04/08 06:08:09;;;;;;;6.37;2.17;;;16.10;99.90;;;;;;5001748;28;20264;-93
2022/04/08 06:10:42;;;;;;;6.57;1.77;;;16.10;99.90;;;;;;5002164;28;20202;-91
2022/04/08 06:13:13;;;;;;;2.80;1.40;;;16.00;99.90;;;;;;5020807;28;20233;-93
2022/04/08 06:15:48;;;;;;;2.67;1.50;;;16.00;99.90;;;;;;5004575;28;20268;-93
2022/04/08 06:18:19;;;;;;;4.70;1.40;;;16.10;99.90;;;;;;5019884;28;20225;-93
2022/04/08 06:20:51;;;;;;;2.33;1.13;;;16.40;99.90;;;;;;5026330;28;20217;-93
2022/04/08 06:23:22;;;;;;;4.83;1.80;;;16.50;99.90;;;;;;5019759;28;20741;-92
2022/04/08 06:25:54;;;;;;;4.73;1.30;;;16.70;99.20;;;;;;5020742;28;20209;-93
2022/04/08 06:28:25;;;;;;;4.73;1.40;;;16.70;99.20;;;;;;5020404;28;20233;-94
2022/04/08 06:30:59;;;;;;;6.10;2.13;;;17.00;98.20;;;;;;5021243;28;20298;-91
2022/04/08 06:33:30;;;;;;;2.90;1.40;;;17.10;98.30;;;;;;5018252;28;20616;-92
2022/04/08 06:36:03;;;;;;;5.93;1.60;;;17.00;98.90;;;;;;5000974;28;20268;-93
2022/04/08 06:38:37;;;;;;;5.00;1.90;;;16.90;99.10;;;;;;5017736;28;20240;-93
2022/04/08 06:41:10;;;;;;;2.43;1.50;;;16.80;99.50;;;;;;5018905;28;20260;-92
2022/04/08 06:43:42;;;;;;;6.87;1.50;;;16.70;99.90;;;;;;5001577;28;20221;-92
2022/04/08 06:46:16;;;;;;;3.73;1.33;;;16.70;99.90;;;;;;5024685;28;20540;-93
2022/04/08 06:48:47;;;;;;;4.30;1.70;;;16.70;99.90;;;;;;5023572;28;20261;-93
2022/04/08 06:51:19;;;;;;;3.13;1.60;;;16.60;99.90;;;;;;5019727;28;20214;-94
2022/04/08 06:53:51;;;;;;;3.87;1.43;;;16.50;99.90;;;;;;5019907;28;20217;-93
2022/04/08 06:56:23;;;;;;;8.03;1.60;;;16.50;99.90;;;;;;5020377;28;20229;-92
2022/04/08 06:58:54;;;;;;;4.87;1.50;;;16.50;99.90;;;;;;5034382;28;20209;-94
2022/04/08 07:01:29;;;;;;;3.30;1.37;;;16.40;99.90;;;;;;5033606;28;20205;-93
2022/04/08 07:04:02;;;;;;;4.67;1.60;;;16.30;99.90;;;;;;5033488;28;20265;-92
2022/04/08 07:06:34;;;;;;;5.57;1.60;;;16.30;99.90;;;;;;5032816;28;20209;-93
2022/04/08 07:09:05;;;;;;;4.10;1.97;;;16.30;99.90;;;;;;5026175;28;20291;-92
2022/04/08 07:11:36;;;;;;;4.73;1.50;;;16.20;99.90;;;;;;5005184;28;20201;-92
2022/04/08 07:14:08;;;;;;;4.07;1.37;;;16.10;99.90;;;;;;5020732;28;20209;-92
2022/04/08 07:16:43;;;;;;;4.23;1.40;;;16.00;99.90;;;;;;5022335;28;20214;-91
2022/04/08 07:19:15;;;;;;;2.23;1.27;;;15.90;99.90;;;;;;5019389;28;20205;-93
2022/04/08 07:21:47;;;;;;;4.30;1.33;;;15.90;99.90;;;;;;4986119;28;20209;-92
2022/04/08 07:24:19;;;;;;;3.83;1.30;;;15.80;98.20;;;;;;5001443;28;20224;-91
2022/04/08 07:26:50;;;;;;;3.03;1.17;;;15.70;97.10;;;;;;5018344;28;20248;-92
2022/04/08 07:29:21;;;;;;;4.60;1.37;;;15.60;97.20;;;;;;5016943;28;20237;-92
2022/04/08 07:31:57;;;;;;;7.23;1.30;;;15.50;96.90;;;;;;5001596;28;20220;-92
2022/04/08 07:34:31;;;;;;;2.10;1.20;;;15.40;96.80;;;;;;5028351;28;20205;-92
2022/04/08 07:37:02;;;;;;;2.43;1.10;;;15.40;96.90;;;;;;5008219;28;20226;-93
2022/04/08 07:39:36;;;;;;;2.53;1.10;;;15.30;97.20;;;;;;5026356;28;20281;-91
2022/04/08 07:42:08;;;;;;;5.07;1.13;;;15.20;96.40;;;;;;5026281;28;20214;-92
2022/04/08 07:44:40;;;;;;;4.00;1.23;;;15.20;97.40;;;;;;5024511;28;20202;-92
2022/04/08 07:47:14;;;;;;;2.70;1.20;;;15.10;96.40;;;;;;5024362;28;20709;-91
2022/04/08 07:49:47;;;;;;;1.60;1.00;;;15.00;95.90;;;;;;5054957;22;20297;-91
2022/04/08 07:52:20;;;;;;;2.87;0.90;;;15.00;95.80;;;;;;5022259;28;20237;-91
2022/04/08 07:54:51;;;;;;;5.17;1.10;;;14.90;94.30;;;;;;5023009;28;20244;-91
2022/04/08 07:57:23;;;;;;;2.47;1.00;;;14.90;93.30;;;;;;5022956;28;20244;-93
2022/04/08 07:59:55;;;;;;;2.03;0.90;;;14.80;93.10;;;;;;5020870;28;20213;-93
2022/04/08 08:02:32;;;;;;;3.80;0.90;;;14.70;92.00;;;;;;5024572;28;20308;-93
2022/04/08 08:05:04;;;;;;;2.30;1.00;;;14.70;91.90;;;;;;5022036;28;20247;-92
2022/04/08 08:07:46;;;;;;;1.17;0.67;;;14.60;92.00;;;;;;5021435;28;20736;-92
2022/04/08 08:10:19;;;;;;;2.53;1.00;;;14.50;92.00;;;;;;5031421;28;20201;-92
2022/04/08 08:12:50;;;;;;;1.90;0.70;;;14.30;90.90;;;;;;5024562;28;20213;-92
2022/04/08 08:15:23;;;;;;;2.57;0.80;;;14.20;90.70;;;;;;5024819;28;20252;-92
2022/04/08 08:18:01;;;;;;;5.10;0.80;;;14.10;91.10;;;;;;5022682;28;20202;-93
2022/04/08 08:20:32;;;;;;;2.93;0.83;;;14.00;90.90;;;;;;5022584;28;20210;-90
2022/04/08 08:23:04;;;;;;;0.80;0.60;;;13.90;91.00;;;;;;5006478;28;20220;-92
2022/04/08 08:25:35;;;;;;;2.10;0.90;;;13.90;91.50;;;;;;5033957;28;20201;-92
2022/04/08 08:28:08;;;;;;;1.20;0.87;;;13.80;91.60;;;;;;5039726;28;20680;-92
2022/04/08 08:30:40;;;;;;;3.63;0.87;;;13.80;91.70;;;;;;5024458;28;20220;-93
2022/04/08 08:33:14;;;;;;;0.90;0.77;;;13.70;92.00;;;;;;5041142;28;20225;-91
2022/04/08 08:35:47;;;;;;;2.83;1.00;;;13.60;92.30;;;;;;5040451;28;20645;-91
2022/04/08 08:38:19;;;;;;;4.60;0.90;;;13.50;92.00;;;;;;5022994;28;20205;-91
2022/04/08 08:40:51;;;;;;;3.00;0.90;;;13.40;92.50;;;;;;4984293;28;20238;-91
2022/04/08 08:43:23;;;;;;;1.13;0.70;;;13.30;93.80;;;;;;4984102;28;20241;-91
2022/04/08 08:45:58;;;;;;;0.83;0.50;;;13.20;93.40;;;;;;5000922;28;20701;-91
2022/04/08 08:48:38;;;;;;;1.70;1.13;;;13.20;93.90;;;;;;5001038;28;20726;-92
2022/04/08 08:51:09;;;;;;;1.17;0.50;;;13.10;93.00;;;;;;5001433;28;20296;-89
2022/04/08 08:53:42;;;;;;;2.27;0.70;;;13.10;92.70;;;;;;5000869;28;20195;-91
2022/04/08 08:56:30;;;;;;;2.10;1.23;;;13.00;92.30;;;;;;5018405;28;20194;-92
2022/04/08 08:59:03;;;;;;;1.17;0.70;;;12.90;90.90;;;;;;5017729;28;20194;-91
2022/04/08 09:01:34;;;;;;;2.53;0.80;;;12.80;90.70;;;;;;5026733;28;20281;-92
2022/04/08 09:04:10;;;;;;;0.87;0.87;;;12.70;90.00;;;;;;5020877;28;20194;-91
2022/04/08 09:06:44;;;;;;;2.10;0.80;;;12.70;87.60;;;;;;5037471;28;20208;-92
2022/04/08 09:09:19;;;;;;;2.73;0.90;;;12.60;88.70;;;;;;5037759;28;20222;-92
2022/04/08 09:11:51;;;;;;;2.80;1.07;;;12.50;89.10;;;;;;5038881;28;20191;-93
2022/04/08 09:14:30;;;;;;;3.17;1.00;;;12.40;90.90;;;;;;5038336;28;20193;-92
2022/04/08 09:17:03;;;;;;;3.07;0.70;;;12.30;91.30;;;;;;5148087;23;20255;-93
2022/04/08 09:19:37;;;;;;;2.30;0.70;;;12.30;91.20;;;;;;5056715;28;20205;-91
2022/04/08 09:22:11;;;;;;;1.93;0.70;;;12.30;92.30;;;;;;5056808;28;20208;-90
2022/04/08 09:24:42;;;;;;;1.47;0.70;;;12.10;94.10;;;;;;5042177;28;20266;-91
2022/04/08 09:27:15;;;;;;;2.07;0.80;;;12.10;95.40;;;;;;5039480;28;20201;-92
2022/04/08 09:29:48;;;;;;;2.23;0.50;;;11.90;96.60;;;;;;5040436;28;20328;-91
2022/04/08 09:32:37;;;;;;;1.17;0.60;;;11.90;97.90;;;;;;5039755;28;20312;-91
2022/04/08 09:35:20;;;;;;;1.80;0.50;;;11.90;98.80;;;;;;5039908;28;20201;-91
2022/04/08 09:38:01;;;;;;;1.97;0.60;;;11.80;99.90;;;;;;5038847;28;20263;-90
2022/04/08 09:40:40;;;;;;;1.90;0.60;;;11.80;99.90;;;;;;5039590;28;20296;-90
2022/04/08 09:43:14;;;;;;;2.70;0.80;;;11.70;99.90;;;;;;5039815;28;20275;-91
2022/04/08 09:45:46;;;;;;;34.00;9.90;;;11.50;99.90;;;;;;5039059;28;20217;-91
2022/04/08 09:48:18;;;;;;;1.93;0.90;;;11.40;99.90;;;;;;5037048;28;20995;-92
2022/04/08 09:50:55;;;;;;;1.97;0.70;;;11.20;99.90;;;;;;5043469;28;20232;-91
2022/04/08 09:53:29;;;;;;;3.13;0.67;;;11.10;99.90;;;;;;5039914;28;20227;-92
2022/04/08 09:56:01;;;;;;;3.20;0.90;;;11.00;99.90;;;;;;5039964;28;20606;-92
2022/04/08 09:58:36;;;;;;;1.57;0.97;;;10.90;99.90;;;;;;5038539;28;20618;-92
2022/04/08 10:01:09;;;;;;;1.77;0.63;;;10.80;99.90;;;;;;5037764;28;20299;-91
2022/04/08 10:03:42;;;;;;;2.97;2.10;;;10.60;99.90;;;;;;5039011;28;20217;-90
2022/04/08 10:06:16;;;;;;;2.23;0.73;;;10.40;99.90;;;;;;5038870;28;20247;-91
2022/04/08 10:08:50;;;;;;;1.10;0.80;;;10.40;99.90;;;;;;5038445;28;20317;-91
2022/04/08 10:11:34;;;;;;;2.03;0.83;;;10.30;99.90;;;;;;5039918;28;20240;-91
2022/04/08 10:14:32;;;;;;;1.70;0.80;;;10.10;99.90;;;;;;5041799;28;20216;-91
2022/04/08 10:17:09;;;;;;;1.80;1.70;;;9.80;99.90;;;;;;5053988;28;20208;-91
2022/04/08 10:19:42;;;;;;;2.40;0.90;;;9.60;99.90;;;;;;5055693;28;20196;-90
2022/04/08 10:22:22;;;;;;;3.53;0.57;;;9.40;99.90;;;;;;5053169;28;20222;-91
2022/04/08 10:24:55;;;;;;;1.63;0.90;;;9.30;99.90;;;;;;5042744;28;20204;-92
2022/04/08 10:27:34;;;;;;;2.93;1.10;;;9.10;99.90;;;;;;5039538;28;20248;-91
2022/04/08 10:30:14;;;;;;;3.63;2.70;;;9.10;99.90;;;;;;5042860;28;20236;-90
2022/04/08 10:32:59;;;;;;;3.70;1.10;;;9.00;99.90;;;;;;5019899;28;20212;-91
2022/04/08 10:35:31;;;;;;;1.73;0.70;;;9.00;99.90;;;;;;5019146;28;20206;-93
2022/04/08 10:38:06;;;;;;;1.90;1.07;;;8.90;99.90;;;;;;5017242;28;20216;-91
2022/04/08 10:40:39;;;;;;;1.93;1.73;;;8.90;99.90;;;;;;5018908;28;20304;-91
2022/04/08 10:43:14;;;;;;;3.90;2.77;;;8.90;99.90;;;;;;5017824;28;20275;-91
2022/04/08 10:45:56;;;;;;;1.50;0.50;;;8.90;99.90;;;;;;5018047;28;20209;-91
2022/04/08 10:48:42;;;;;;;0.87;0.63;;;8.90;99.90;;;;;;5018429;28;20293;-90
2022/04/08 10:51:15;;;;;;;2.13;2.00;;;8.90;99.90;;;;;;5016465;28;20257;-91
2022/04/08 10:53:48;;;;;;;3.33;1.13;;;8.90;99.90;;;;;;5018804;28;20273;-90
2022/04/08 10:56:20;;;;;;;1.20;0.90;;;8.90;99.90;;;;;;5018974;28;20291;-90
2022/04/08 10:58:51;;;;;;;2.60;1.57;;;8.90;99.90;;;;;;5019670;28;20277;-89
2022/04/08 11:01:24;;;;;;;3.13;0.80;;;8.90;99.90;;;;;;5026175;28;20312;-90
2022/04/08 11:03:56;;;;;;;4.20;2.30;;;8.90;99.90;;;;;;5037484;28;20205;-89
2022/04/08 11:06:28;;;;;;;1.33;0.70;;;8.80;99.90;;;;;;5037889;28;20692;-91
2022/04/08 11:09:06;;;;;;;3.03;1.30;;;8.80;99.90;;;;;;5036432;28;20662;-91
2022/04/08 11:11:39;;;;;;;3.17;1.67;;;8.80;99.90;;;;;;5039134;28;20248;-91
2022/04/08 11:14:12;;;;;;;2.73;0.80;;;8.80;99.90;;;;;;5037562;28;20238;-91
2022/04/08 11:16:46;;;;;;;9.10;2.20;;;8.80;99.90;;;;;;5042314;28;20270;-92
2022/04/08 11:19:18;;;;;;;1.93;0.80;;;8.80;99.90;;;;;;5036904;28;20231;-91
2022/04/08 11:21:51;;;;;;;1.53;0.73;;;8.70;99.90;;;;;;5037322;28;20277;-91
2022/04/08 11:24:26;;;;;;;2.57;1.03;;;8.80;99.90;;;;;;5041116;28;20243;-91
2022/04/08 11:26:57;;;;;;;12.27;2.23;;;8.80;99.90;;;;;;5041802;28;20204;-91
2022/04/08 11:29:29;;;;;;;8.63;6.57;;;8.80;99.90;;;;;;5041529;28;20243;-92
2022/04/08 11:32:11;;;;;;;1.27;0.70;;;8.80;99.90;;;;;;5042913;28;20232;-91
2022/04/08 11:34:43;;;;;;;43.57;7.67;;;8.80;99.90;;;;;;5058189;28;20197;-92
2022/04/08 11:37:16;;;;;;;2.40;0.90;;;8.90;99.90;;;;;;5055310;28;20240;-92
2022/04/08 11:40:00;;;;;;;7.97;4.33;;;8.90;99.90;;;;;;5049987;28;20649;-93
2022/04/08 11:42:32;;;;;;;1.67;0.90;;;8.90;99.90;;;;;;5043235;28;20232;-93
2022/04/08 11:45:04;;;;;;;1.33;0.80;;;8.90;99.90;;;;;;5043438;28;20224;-91
2022/04/08 11:47:39;;;;;;;0.77;0.77;;;8.90;99.90;;;;;;5041259;28;20205;-91
2022/04/08 11:50:25;;;;;;;1.83;1.57;;;8.90;99.90;;;;;;5042496;28;20239;-92
2022/04/08 11:52:58;;;;;;;1.63;1.20;;;9.00;99.90;;;;;;5042896;28;20212;-92
2022/04/08 11:55:36;;;;;;;2.47;1.47;;;9.00;99.90;;;;;;5024385;28;20204;-93
2022/04/08 11:58:19;;;;;;;4.00;1.00;;;8.90;99.90;;;;;;5020648;28;20240;-93
2022/04/08 12:00:54;;;;;;;2.30;2.10;;;9.00;99.90;;;;;;5023201;28;20217;-92
2022/04/08 12:03:30;;;;;;;1.40;0.50;;;9.00;99.90;;;;;;5042819;28;20658;-91
2022/04/08 12:06:03;;;;;;;1.63;0.57;;;9.00;99.90;;;;;;5041794;28;20239;-92
2022/04/08 12:08:40;;;;;;;1.77;0.63;;;9.00;99.90;;;;;;5041056;28;20208;-92
2022/04/08 12:11:14;;;;;;;2.17;1.40;;;9.00;99.90;;;;;;5039922;28;20232;-90
2022/04/08 12:13:46;;;;;;;2.23;0.83;;;9.10;99.90;;;;;;5041568;28;20304;-91
2022/04/08 12:16:19;;;;;;;2.63;0.70;;;9.10;99.90;;;;;;5039169;28;20212;-91
2022/04/08 12:18:51;;;;;;;2.03;1.03;;;9.10;99.90;;;;;;5040113;28;20213;-90
2022/04/08 12:21:28;;;;;;;1.57;0.90;;;9.10;99.90;;;;;;5040888;28;20228;-90
2022/04/08 12:24:01;;;;;;;1.47;0.80;;;9.10;99.90;;;;;;5040588;28;20562;-91
2022/04/08 12:26:36;;;;;;;1.40;1.10;;;9.10;99.90;;;;;;5040412;28;20212;-91
2022/04/08 12:29:10;;;;;;;1.13;0.93;;;9.10;99.90;;;;;;5040141;28;20204;-91
2022/04/08 12:31:53;;;;;;;2.40;0.80;;;9.10;99.90;;;;;;5041438;28;20235;-91
2022/04/08 12:34:25;;;;;;;1.53;0.60;;;9.10;99.90;;;;;;5041454;28;20216;-90
2022/04/08 12:36:58;;;;;;;1.57;0.80;;;9.10;99.90;;;;;;5040364;28;20223;-91
2022/04/08 12:39:30;;;;;;;1.53;0.70;;;9.20;99.90;;;;;;5053744;28;20279;-89
2022/04/08 12:42:06;;;;;;;3.80;0.90;;;9.10;99.90;;;;;;5057139;28;20211;-92
2022/04/08 12:44:37;;;;;;;0.77;0.77;;;9.10;99.90;;;;;;5045908;28;20209;-92
2022/04/08 12:47:10;;;;;;;2.17;0.83;;;9.20;99.90;;;;;;4693396;28;10000201;-92
2022/04/08 12:49:41;;;;;;;1.33;0.80;;;9.10;99.90;;;;;;5042062;28;20221;-89
2022/04/08 12:52:12;;;;;;;5.30;1.10;;;9.20;99.90;;;;;;5041471;28;20316;-91
2022/04/08 12:54:43;;;;;;;3.27;1.50;;;9.20;99.90;;;;;;5039880;28;20213;-90
2022/04/08 12:57:18;;;;;;;0.93;0.77;;;9.20;99.90;;;;;;5038983;28;20216;-90
2022/04/08 13:00:20;;;;;;;2.33;0.97;;;9.20;99.90;;;;;;5039946;28;20208;-91
2022/04/08 13:02:52;;;;;;;2.90;1.07;;;9.20;99.90;;;;;;5040049;28;20216;-91
2022/04/08 13:05:25;;;;;;;28.57;4.83;;;9.20;99.90;;;;;;5042549;28;20205;-90
2022/04/08 13:07:56;;;;;;;2.03;1.00;;;9.20;99.90;;;;;;5042697;28;20251;-91
2022/04/08 13:10:28;;;;;;;2.93;1.10;;;9.20;99.90;;;;;;5042904;28;20304;-91
2022/04/08 13:13:06;;;;;;;5.57;1.20;;;9.20;99.90;;;;;;5041429;28;20224;-91
2022/04/08 13:15:37;;;;;;;4.53;1.20;;;9.20;99.90;;;;;;5040744;28;20219;-91
2022/04/08 13:18:09;;;;;;;3.63;1.47;;;9.10;99.90;;;;;;5038541;28;20217;-89
2022/04/08 13:20:40;;;;;;;3.33;1.10;;;9.10;99.90;;;;;;5039599;28;20247;-91
2022/04/08 13:23:12;;;;;;;4.13;1.27;;;9.10;99.90;;;;;;5039697;28;20232;-91
2022/04/08 13:25:44;;;;;;;2.27;0.97;;;9.10;99.90;;;;;;5038984;28;20228;-91
2022/04/08 13:28:17;;;;;;;5.43;1.10;;;9.10;99.90;;;;;;5038633;28;20235;-92
2022/04/08 13:30:51;;;;;;;5.77;4.97;;;9.10;99.90;;;;;;5039598;28;20212;-92
2022/04/08 13:33:23;;;;;;;8.97;1.77;;;8.90;99.90;;;;;;5039947;28;20227;-91
2022/04/08 13:35:57;;;;;;;5.90;2.70;;;8.90;99.90;;;;;;5038934;28;20212;-91
2022/04/08 13:38:29;;;;;;;7.10;1.30;;;8.80;99.90;;;;;;5037974;28;20224;-92
2022/04/08 13:41:02;;;;;;;8.93;1.70;;;8.70;99.90;;;;;;5040057;28;20217;-93
2022/04/08 13:43:35;;;;;;;8.17;1.50;;;8.70;99.90;;;;;;5039697;28;20295;-91
2022/04/08 13:46:06;;;;;;;9.00;1.33;;;8.70;99.90;;;;;;5038008;28;20201;-91
2022/04/08 13:48:37;;;;;;;8.50;1.67;;;8.60;99.90;;;;;;5039222;28;20259;-91
2022/04/08 13:51:09;;;;;;;9.30;1.63;;;8.50;99.90;;;;;;5048352;28;20259;-91
2022/04/08 13:53:41;;;;;;;7.13;2.63;;;8.50;99.90;;;;;;5049240;28;20220;-92
2022/04/08 13:56:12;;;;;;;10.03;1.60;;;8.40;99.90;;;;;;5048826;28;20215;-92
2022/04/08 13:58:47;;;;;;;9.37;1.80;;;8.40;99.90;;;;;;5040445;28;20205;-93
2022/04/08 14:01:21;;;;;;;9.63;2.10;;;8.40;99.90;;;;;;5042749;28;20211;-92
2022/04/08 14:03:53;;;;;;;7.67;1.40;;;8.30;99.90;;;;;;5028785;28;20642;-91
2022/04/08 14:06:24;;;;;;;5.50;1.33;;;8.30;99.90;;;;;;5019030;28;20217;-91
2022/04/08 14:08:55;;;;;;;6.80;2.40;;;8.20;99.90;;;;;;5017537;28;20316;-92
2022/04/08 14:11:27;;;;;;;6.50;2.40;;;8.20;99.90;;;;;;5019417;28;20221;-92
2022/04/08 14:14:01;;;;;;;4.50;1.37;;;8.20;99.90;;;;;;5018926;28;20220;-92
2022/04/08 14:16:35;;;;;;;5.43;1.67;;;8.10;99.90;;;;;;5019425;28;20255;-93
2022/04/08 14:19:06;;;;;;;5.33;1.63;;;8.10;99.90;;;;;;5018162;28;20244;-93
2022/04/08 14:21:37;;;;;;;5.23;1.97;;;8.00;99.90;;;;;;5018857;28;20209;-91
2022/04/08 14:24:09;;;;;;;5.50;1.43;;;8.00;99.90;;;;;;5018708;28;20233;-93
2022/04/08 14:26:41;;;;;;;6.50;1.50;;;8.00;99.90;;;;;;5018672;28;20631;-92
2022/04/08 14:29:17;;;;;;;5.07;3.07;;;8.00;99.90;;;;;;5019512;28;20291;-92
2022/04/08 14:31:57;;;;;;;3.67;0.90;;;7.90;99.90;;;;;;5018829;28;20240;-92
2022/04/08 14:34:29;;;;;;;5.93;4.93;;;7.90;99.90;;;;;;5035894;28;20205;-91
2022/04/08 14:37:02;;;;;;;5.83;1.70;;;7.90;99.90;;;;;;5046708;28;20209;-92